Latest Coastal Weather Observations for Noarlunga

IDS60701

Issued at 5:41 am CDT Saturday 28 March 2015 (issued every 10 minutes, with the page automatically refreshed every 10 minutes)

About coastal observations | Map of coastal stations | Coastal observations for SA | Marine services | Other Formats
Station Details ID: 023885 Name: NOARLUNGA Lat: -35.16 Lon: 138.51 Height: 55.0 m
Data from the previous 72 hours. | See also: Recent months at Noarlunga
Date/Time
CDT
Temp

°C
Wind Pressure Rain
since 9am
mm
Weather Cloud Vis
km
Sea
Height
m
Swell
Dir
 
Speed
knots
Gust
knots
hPa Trend Height
m
Period
s
Dir
28/05:30am 12.0 ENE 4 6 - - 0.0 - - - - - - -
28/05:00am 12.0 NE 5 7 - - 0.0 - - - - - - -
28/04:30am 12.0 NE 4 5 - - 0.0 - - - - - - -
28/04:00am 11.9 ENE 5 8 - - 0.0 - - - - - - -
28/03:30am 11.8 E 6 10 - - 0.0 - - - - - - -
28/03:00am 11.4 ESE 5 5 - - 0.0 - - - - - - -
28/02:30am 12.1 ESE 4 5 - - 0.0 - - - - - - -
28/02:00am 13.2 E 3 4 - - 0.0 - - - - - - -
28/01:30am 13.7 ENE 4 6 - - 0.0 - - - - - - -
28/01:00am 13.4 ESE 3 5 - - 0.0 - - - - - - -
28/12:30am 13.4 E 5 7 - - 0.0 - - - - - - -
28/12:00am 13.0 ESE 4 5 - - 0.0 - - - - - - -
 
Date/Time
CDT
Temp

°C
Wind Pressure Rain
since 9am
mm
Weather Cloud Vis
km
Sea
Height
m
Swell
Dir
 
Speed
knots
Gust
knots
hPa Trend Height
m
Period
s
Dir
27/11:30pm 12.0 ESE 4 6 - - 0.0 - - - - - - -
27/11:00pm 12.1 ESE 4 5 - - 0.0 - - - - - - -
27/10:30pm 12.7 E 4 5 - - 0.0 - - - - - - -
27/10:00pm 12.7 ESE 4 5 - - 0.0 - - - - - - -
27/09:30pm 13.5 ESE 5 7 - - 0.0 - - - - - - -
27/09:00pm 13.9 ESE 5 7 - - 0.0 - - - - - - -
27/08:30pm 14.5 SE 6 10 - - 0.0 - - - - - - -
27/08:00pm 15.4 SE 7 11 - - 0.0 - - - - - - -
27/07:30pm 15.6 SSW 3 10 - - 0.0 - - - - - - -
27/07:00pm 15.9 W 3 4 - - 0.0 - - - - - - -
27/06:30pm 16.3 CALM 0 2 - - 0.0 - - - - - - -
27/06:00pm 15.7 N 2 3 - - 0.0 - - - - - - -
27/05:30pm 15.6 S 4 6 - - 0.0 - - - - - - -
27/05:00pm 16.2 SW 6 9 - - 0.0 - - - - - - -
27/04:30pm 16.8 SW 6 9 - - 0.0 - - - - - - -
27/04:00pm 16.6 SW 6 9 - - 0.0 - - - - - - -
27/03:30pm 16.9 WSW 6 9 - - 0.0 - - - - - - -
27/03:00pm 16.9 SW 6 11 - - 0.0 - - - - - - -
27/02:30pm 17.1 SW 5 9 - - 0.0 - - - - - - -
27/02:00pm 16.7 WSW 7 9 - - 0.0 - - - - - - -
27/01:30pm 17.4 WSW 4 6 - - 0.0 - - - - - - -
27/01:00pm 16.8 SW 6 10 - - 0.0 - - - - - - -
27/12:30pm 17.7 WSW 6 9 - - 0.0 - - - - - - -
27/12:00pm 17.1 SW 6 9 - - 0.0 - - - - - - -
27/11:30am 17.2 SSW 5 8 - - 0.0 - - - - - - -
27/11:00am 17.0 S 6 9 - - 0.0 - - - - - - -
27/10:30am 16.1 S 5 7 - - 0.0 - - - - - - -
27/10:00am 15.9 SSE 8 11 - - 0.0 - - - - - - -
27/09:30am 15.9 SSE 5 8 - - 0.0 - - - - - - -
27/09:00am 14.8 SSE 7 9 - - 0.0 - - - - - - -
27/08:30am 14.8 SSE 5 7 - - 0.0 - - - - - - -
27/08:00am 14.7 S 5 8 - - 0.0 - - - - - - -
27/07:30am 14.4 SSW 4 6 - - 0.0 - - - - - - -
27/07:00am 14.2 S 5 7 - - 0.0 - - - - - - -
27/06:30am 14.0 SSE 5 7 - - 0.0 - - - - - - -
27/06:00am 13.9 S 4 6 - - 0.0 - - - - - - -
27/05:30am 13.8 S 4 5 - - 0.0 - - - - - - -
27/05:00am 13.6 SSE 3 6 - - 0.0 - - - - - - -
27/04:30am 13.6 SSE 4 5 - - 0.0 - - - - - - -
27/04:00am 13.6 S 4 6 - - 0.0 - - - - - - -
27/03:30am 13.3 SSE 3 4 - - 0.0 - - - - - - -
27/03:00am 13.8 S 2 3 - - 0.0 - - - - - - -
27/02:30am 13.7 S 3 5 - - 0.0 - - - - - - -
27/02:00am 13.7 SSW 7 13 - - 0.0 - - - - - - -
27/01:30am 13.3 SSE 1 2 - - 0.0 - - - - - - -
27/01:00am 13.8 SSW 5 11 - - 0.0 - - - - - - -
27/12:30am 13.8 SW 4 7 - - 0.0 - - - - - - -
27/12:00am 13.5 S 3 4 - - 0.0 - - - - - - -
 
Date/Time
CDT
Temp

°C
Wind Pressure Rain
since 9am
mm
Weather Cloud Vis
km
Sea
Height
m
Swell
Dir
 
Speed
knots
Gust
knots
hPa Trend Height
m
Period
s
Dir
26/11:30pm 13.6 S 4 7 - - 0.0 - - - - - - -
26/11:00pm 14.1 SSW 7 13 - - 0.0 - - - - - - -
26/10:30pm 13.9 S 5 9 - - 0.0 - - - - - - -
26/10:00pm 13.7 SSE 5 7 - - 0.0 - - - - - - -
26/09:30pm 13.4 SSE 5 8 - - 0.0 - - - - - - -
26/09:00pm 13.2 S 5 9 - - 0.0 - - - - - - -
26/08:30pm 14.1 S 9 15 - - 0.0 - - - - - - -
26/08:00pm 14.4 SSW 8 12 - - 0.0 - - - - - - -
26/07:30pm 15.1 SSW 10 15 - - 0.0 - - - - - - -
26/07:00pm 15.5 SSW 6 9 - - 0.0 - - - - - - -
26/06:30pm 15.7 SW 9 16 - - 0.0 - - - - - - -
26/06:00pm 15.9 SW 12 19 - - 0.0 - - - - - - -
26/05:30pm 17.0 SW 11 16 - - 0.0 - - - - - - -
26/05:00pm 17.4 SW 13 20 - - 0.0 - - - - - - -
26/04:30pm 17.3 WSW 13 20 - - 0.0 - - - - - - -
26/04:00pm 17.8 SW 13 19 - - 0.0 - - - - - - -
26/03:30pm 16.7 SW 13 19 - - 0.0 - - - - - - -
26/03:00pm 16.7 SW 12 19 - - 0.0 - - - - - - -
26/02:30pm 17.6 WSW 12 17 - - 0.0 - - - - - - -
26/02:00pm 15.8 SW 15 23 - - 0.0 - - - - - - -
26/01:30pm 17.7 SW 10 16 - - 0.0 - - - - - - -
26/01:00pm 17.4 WSW 12 19 - - 0.0 - - - - - - -
26/12:30pm 16.3 WSW 12 19 - - 0.0 - - - - - - -
26/12:00pm 15.4 WSW 12 20 - - 0.0 - - - - - - -
26/11:30am 14.7 SW 10 19 - - 0.0 - - - - - - -
26/11:00am 15.7 WSW 13 21 - - 0.0 - - - - - - -
26/10:30am 15.8 WSW 11 18 - - 0.0 - - - - - - -
26/10:00am 14.5 WSW 13 20 - - 0.0 - - - - - - -
26/09:30am 14.3 SW 12 18 - - 0.0 - - - - - - -
26/09:00am 13.8 SW 12 21 - - 1.4 - - - - - - -
26/08:30am 13.7 SW 12 20 - - 1.4 - - - - - - -
26/08:00am 13.3 SW 13 17 - - 1.4 - - - - - - -
26/07:30am 13.1 SW 13 21 - - 1.4 - - - - - - -
26/07:00am 13.1 SW 12 17 - - 1.4 - - - - - - -
26/06:30am 13.2 SW 14 23 - - 1.4 - - - - - - -
26/06:00am 13.1 SW 11 22 - - 1.4 - - - - - - -
26/05:30am 13.2 SW 13 21 - - 1.4 - - - - - - -
26/05:00am 13.1 SW 13 19 - - 1.4 - - - - - - -
26/04:30am 13.2 WSW 13 19 - - 1.4 - - - - - - -
26/04:00am 13.2 WSW 14 21 - - 1.4 - - - - - - -
26/03:30am 13.1 WSW 13 22 - - 1.4 - - - - - - -
26/03:00am 13.3 SW 13 20 - - 1.4 - - - - - - -
26/02:30am 13.2 SW 10 17 - - 1.4 - - - - - - -
26/02:00am 13.4 SW 15 26 - - 1.4 - - - - - - -
26/01:53am 13.4 WSW 15 26 - - 1.4 - - - - - - -
26/01:30am 13.5 WSW 12 20 - - 1.4 - - - - - - -
26/01:00am 13.7 WSW 14 20 - - 1.4 - - - - - - -
26/12:30am 13.7 WSW 13 20 - - 1.4 - - - - - - -
26/12:00am 13.8 WSW 15 25 - - 1.4 - - - - - - -
 
Date/Time
CDT
Temp

°C
Wind Pressure Rain
since 9am
mm
Weather Cloud Vis
km
Sea
Height
m
Swell
Dir
 
Speed
knots
Gust
knots
hPa Trend Height
m
Period
s
Dir
25/11:54pm 13.9 WSW 15 25 - - 1.4 - - - - - - -
25/11:30pm 13.9 WSW 13 20 - - 1.4 - - - - - - -
25/11:00pm 14.1 SW 16 24 - - 1.4 - - - - - - -
25/10:30pm 14.2 WSW 14 22 - - 1.4 - - - - - - -
25/10:00pm 14.0 WSW 14 20 - - 1.4 - - - - - - -
25/09:30pm 14.2 SW 14 22 - - 1.4 - - - - - - -
25/09:00pm 14.2 WSW 15 24 - - 1.4 - - - - - - -
25/08:49pm 14.4 WSW 15 26 - - 1.4 - - - - - - -
25/08:30pm 14.4 WSW 15 24 - - 1.4 - - - - - - -
25/08:00pm 14.6 WSW 15 23 - - 1.4 - - - - - - -
25/07:30pm 14.3 SW 13 19 - - 1.4 - - - - - - -
25/07:00pm 12.8 WSW 14 23 - - 1.4 - - - - - - -
25/06:32pm 13.0 SW 17 28 - - 1.2 - - - - - - -
25/06:30pm 13.0 SW 18 28 - - 1.2 - - - - - - -
25/06:01pm 13.8 SW 19 29 - - 0.2 - - - - - - -
25/06:00pm 13.7 SW 20 29 - - 0.2 Rain - - - - - -
25/05:49pm 15.4 WSW 19 31 - - 0.0 - - - - - - -
25/05:47pm 16.1 W 19 30 - - 0.0 - - - - - - -
25/05:43pm 17.0 W 18 29 - - 0.0 - - - - - - -
25/05:30pm 18.0 W 16 23 - - 0.0 - - - - - - -
25/05:02pm 18.1 NW 16 28 - - 0.0 - - - - - - -
25/05:00pm 18.2 NW 15 23 - - 0.0 - - - - - - -
25/04:30pm 19.3 NW 14 23 - - 0.0 - - - - - - -
25/04:00pm 19.8 NW 16 23 - - 0.0 - - - - - - -
25/03:34pm 20.1 NW 16 26 - - 0.0 - - - - - - -
25/03:30pm 20.6 NW 14 22 - - 0.0 - - - - - - -
25/03:18pm 19.6 NW 16 26 - - 0.0 - - - - - - -
25/03:00pm 20.4 WNW 16 25 - - 0.0 - - - - - - -
25/02:30pm 20.0 WNW 16 25 - - 0.0 - - - - - - -
25/02:23pm 19.1 WNW 15 25 - - 0.0 - - - - - - -
25/02:00pm 19.4 WNW 13 20 - - 0.0 - - - - - - -
25/01:30pm 18.8 NW 11 17 - - 0.0 - - - - - - -
25/01:00pm 18.3 NW 11 18 - - 0.0 - - - - - - -
25/12:30pm 18.4 NW 10 17 - - 0.0 - - - - - - -
25/12:00pm 18.3 NW 12 21 - - 0.0 - - - - - - -
25/11:30am 17.5 NW 9 13 - - 0.0 - - - - - - -
25/11:00am 16.7 N 9 14 - - 0.0 - - - - - - -
25/10:30am 16.5 N 11 15 - - 0.0 - - - - - - -
25/10:00am 15.8 N 11 15 - - 0.0 - - - - - - -
25/09:30am 14.9 N 12 16 - - 0.0 - - - - - - -
25/09:00am 14.5 N 10 15 - - 0.0 - - - - - - -
25/08:30am 14.0 NNE 7 10 - - 0.0 - - - - - - -
25/08:00am 13.4 NNE 7 9 - - 0.0 - - - - - - -
25/07:30am 13.4 NNE 6 8 - - 0.0 - - - - - - -
25/07:00am 13.5 NNE 5 7 - - 0.0 - - - - - - -
25/06:30am 13.4 NE 3 5 - - 0.0 - - - - - - -
25/06:00am 13.6 NE 4 6 - - 0.0 - - - - - - -

Other Formats:

Comma delimited format used in spreadsheet applications
http://www.bom.gov.au/fwo/IDS60701/IDS60701.94808.axf

JavaScript Object Notation format (JSON) in row-major order
http://www.bom.gov.au/fwo/IDS60701/IDS60701.94808.json